createdAt,value
2024-05-09T00:03:43.695Z,100222.22
2024-05-09T00:13:47.346Z,100229.00
2024-05-09T00:23:49.958Z,100234.97
2024-05-09T00:33:56.288Z,100239.16
2024-05-09T00:43:59.711Z,100237.50
2024-05-09T00:54:02.724Z,100240.16
2024-05-09T01:04:05.678Z,100241.78
2024-05-09T01:14:08.451Z,100230.03
2024-05-09T01:24:11.203Z,100229.28
2024-05-09T01:34:13.876Z,100222.88
2024-05-09T01:44:16.696Z,100215.25
2024-05-09T01:54:19.448Z,100214.41
2024-05-09T02:04:22.189Z,100213.03
2024-05-09T02:14:25.065Z,100199.84
2024-05-09T02:24:27.747Z,100206.84
2024-05-09T02:34:30.449Z,100207.56
2024-05-09T02:44:33.161Z,100200.63
2024-05-09T02:54:35.794Z,100202.88
2024-05-09T03:04:38.801Z,100226.53
2024-05-09T03:14:41.554Z,100222.56
2024-05-09T03:24:44.189Z,100218.09
2024-05-09T03:34:46.826Z,100207.38
2024-05-09T03:44:49.567Z,100221.38
2024-05-09T03:54:52.205Z,100228.09
2024-05-09T04:04:54.889Z,100234.91
2024-05-09T04:14:58.008Z,100227.28
2024-05-09T04:25:00.669Z,100245.06
2024-05-09T04:35:03.667Z,100246.81
2024-05-09T04:45:06.680Z,100261.19
2024-05-09T04:55:09.283Z,100255.44
2024-05-09T05:05:12.262Z,100254.53
2024-05-09T05:15:15.109Z,100232.59
2024-05-09T05:25:18.399Z,100247.00
2024-05-09T05:35:21.902Z,100249.88
2024-05-09T05:45:24.657Z,100262.97
2024-05-09T05:55:27.380Z,100268.59
2024-05-09T06:05:30.840Z,100278.84
2024-05-09T06:15:33.585Z,100268.63
2024-05-09T06:25:36.970Z,100289.34
2024-05-09T06:35:40.829Z,100279.25
2024-05-09T06:45:53.999Z,100295.53
2024-05-09T06:56:02.417Z,100292.66
2024-05-09T07:06:05.945Z,100307.22
2024-05-09T07:16:10.029Z,100312.13
2024-05-09T07:26:13.549Z,100318.16
2024-05-09T07:36:16.392Z,100308.88
2024-05-09T07:47:14.509Z,100308.53
2024-05-09T07:56:42.169Z,100311.88
2024-05-09T08:06:44.976Z,100321.69
2024-05-09T08:16:47.715Z,100328.69
2024-05-09T08:26:50.512Z,100341.34
2024-05-09T08:36:53.398Z,100332.34
2024-05-09T08:46:57.349Z,100343.53
2024-05-09T08:57:00.992Z,100340.66
2024-05-09T09:07:07.133Z,100332.09
2024-05-09T09:17:17.030Z,100330.09
2024-05-09T09:27:19.905Z,100327.19
2024-05-09T09:37:28.719Z,100327.22
2024-05-09T09:47:33.333Z,100328.78
2024-05-09T09:57:40.312Z,100323.41
2024-05-09T10:07:46.725Z,100316.63
2024-05-09T10:17:51.539Z,100308.34
2024-05-09T10:28:00.383Z,100305.13
2024-05-09T10:38:08.936Z,100293.91
2024-05-09T10:48:12.032Z,100280.72
2024-05-09T10:58:18.406Z,100285.38
2024-05-09T11:08:23.311Z,100276.97
2024-05-09T11:18:30.848Z,100266.84
2024-05-09T11:28:36.528Z,100253.84
2024-05-09T11:38:40.693Z,100238.91
2024-05-09T11:48:44.157Z,100241.31
2024-05-09T11:58:47.486Z,100223.41
2024-05-09T12:08:50.552Z,100227.72
2024-05-09T12:18:54.178Z,100222.13
2024-05-09T12:28:59.293Z,100205.53
2024-05-09T12:39:06.312Z,100200.16
2024-05-09T12:49:10.537Z,100201.75
2024-05-09T12:59:14.124Z,100201.75
2024-05-09T13:09:16.934Z,100193.03
2024-05-09T13:19:19.946Z,100191.19
2024-05-09T13:29:23.221Z,100176.78
2024-05-09T13:39:25.882Z,100160.13
2024-05-09T13:49:29.302Z,100151.69
2024-05-09T13:59:32.374Z,100140.31
2024-05-09T14:09:35.065Z,100134.47
2024-05-09T14:19:37.857Z,100130.09
2024-05-09T14:30:12.172Z,100117.69
2024-05-09T14:40:31.112Z,100131.59
2024-05-09T14:50:43.633Z,100114.53
2024-05-09T15:00:50.204Z,100112.22
2024-05-09T15:10:54.445Z,100108.53
2024-05-09T15:20:57.654Z,100102.13
2024-05-09T15:31:01.163Z,100097.31
2024-05-09T15:41:05.135Z,100089.13
2024-05-09T15:51:07.994Z,100090.31
2024-05-09T16:01:12.578Z,100077.84
2024-05-09T16:11:17.282Z,100083.50
2024-05-09T16:21:20.656Z,100089.88
2024-05-09T16:31:25.221Z,100086.22
2024-05-09T16:41:28.638Z,100098.25
2024-05-09T16:51:31.549Z,100090.09
2024-05-09T17:01:34.457Z,100090.94
2024-05-09T17:11:37.358Z,100092.25
2024-05-09T17:21:40.118Z,100096.69
2024-05-09T17:31:44.121Z,100086.75
2024-05-09T17:41:46.869Z,100100.94
2024-05-09T17:51:53.940Z,100109.00
2024-05-09T18:01:57.203Z,100110.03
2024-05-09T18:12:00.223Z,100109.38
2024-05-09T18:22:03.034Z,100121.97
2024-05-09T18:32:06.696Z,100119.00
2024-05-09T18:42:09.441Z,100128.13
2024-05-09T18:52:12.987Z,100146.84
2024-05-09T19:02:15.890Z,100163.91
2024-05-09T19:12:18.736Z,100163.81
2024-05-09T19:22:22.560Z,100183.41
2024-05-09T19:32:26.272Z,100181.66
2024-05-09T19:42:31.448Z,100193.41
2024-05-09T19:52:34.457Z,100209.25
2024-05-09T20:02:37.593Z,100208.03
2024-05-09T20:12:40.395Z,100218.19
2024-05-09T20:22:44.746Z,100228.75
2024-05-09T20:32:47.978Z,100234.06
2024-05-09T20:42:51.441Z,100231.97
2024-05-09T20:52:54.038Z,100246.97
2024-05-09T21:02:56.857Z,100248.41
2024-05-09T21:12:59.715Z,100243.50
2024-05-09T21:23:03.014Z,100240.34
2024-05-09T21:33:06.190Z,100247.09
2024-05-09T21:43:09.306Z,100259.47
2024-05-09T21:53:12.837Z,100254.00
2024-05-09T22:03:16.133Z,100259.75
2024-05-09T22:13:20.339Z,100264.53
2024-05-09T22:23:23.070Z,100270.50
2024-05-09T22:33:25.820Z,100276.03
2024-05-09T22:43:28.476Z,100273.41
2024-05-09T22:53:31.091Z,100270.28
2024-05-09T23:03:34.118Z,100271.94
2024-05-09T23:13:37.076Z,100273.00
2024-05-09T23:23:39.707Z,100262.88
2024-05-09T23:33:47.143Z,100255.06
2024-05-09T23:43:50.322Z,100265.50
2024-05-09T23:53:53.065Z,100250.22
